sensor_id;sensor_type;location;lat;lon;timestamp;P1;durP1;ratioP1;P2;durP2;ratioP2
51810;SDS011;52468;40.116;18.296;2024-01-16T00:01:22;7.93;;;4.53;;
51810;SDS011;52468;40.116;18.296;2024-01-16T00:03:50;13.20;;;4.10;;
51810;SDS011;52468;40.116;18.296;2024-01-16T00:06:18;13.10;;;4.23;;
51810;SDS011;52468;40.116;18.296;2024-01-16T00:08:46;11.77;;;4.73;;
51810;SDS011;52468;40.116;18.296;2024-01-16T00:11:14;13.03;;;5.83;;
51810;SDS011;52468;40.116;18.296;2024-01-16T00:13:42;10.23;;;4.30;;
51810;SDS011;52468;40.116;18.296;2024-01-16T00:16:10;8.33;;;4.07;;
51810;SDS011;52468;40.116;18.296;2024-01-16T00:18:38;14.20;;;3.93;;
51810;SDS011;52468;40.116;18.296;2024-01-16T00:21:05;8.33;;;3.70;;
51810;SDS011;52468;40.116;18.296;2024-01-16T00:23:33;7.80;;;4.10;;
51810;SDS011;52468;40.116;18.296;2024-01-16T00:26:01;8.10;;;2.70;;
51810;SDS011;52468;40.116;18.296;2024-01-16T00:28:30;11.93;;;5.40;;
51810;SDS011;52468;40.116;18.296;2024-01-16T00:30:59;10.40;;;3.70;;
51810;SDS011;52468;40.116;18.296;2024-01-16T00:33:27;10.20;;;3.57;;
51810;SDS011;52468;40.116;18.296;2024-01-16T00:35:55;12.57;;;3.53;;
51810;SDS011;52468;40.116;18.296;2024-01-16T00:38:22;10.77;;;3.63;;
51810;SDS011;52468;40.116;18.296;2024-01-16T00:40:50;12.07;;;4.67;;
51810;SDS011;52468;40.116;18.296;2024-01-16T00:43:18;6.53;;;3.50;;
51810;SDS011;52468;40.116;18.296;2024-01-16T00:45:46;10.40;;;3.43;;
51810;SDS011;52468;40.116;18.296;2024-01-16T00:48:15;9.50;;;4.20;;
51810;SDS011;52468;40.116;18.296;2024-01-16T00:50:43;15.97;;;5.60;;
51810;SDS011;52468;40.116;18.296;2024-01-16T00:53:13;14.37;;;4.63;;
51810;SDS011;52468;40.116;18.296;2024-01-16T00:55:41;12.13;;;4.73;;
51810;SDS011;52468;40.116;18.296;2024-01-16T00:58:09;9.67;;;3.97;;
51810;SDS011;52468;40.116;18.296;2024-01-16T01:00:36;15.23;;;4.63;;
51810;SDS011;52468;40.116;18.296;2024-01-16T01:03:04;14.47;;;3.47;;
51810;SDS011;52468;40.116;18.296;2024-01-16T01:05:32;9.93;;;3.20;;
51810;SDS011;52468;40.116;18.296;2024-01-16T01:08:00;16.87;;;5.97;;
51810;SDS011;52468;40.116;18.296;2024-01-16T01:10:28;5.83;;;3.07;;
51810;SDS011;52468;40.116;18.296;2024-01-16T01:12:56;8.50;;;3.27;;
51810;SDS011;52468;40.116;18.296;2024-01-16T01:15:24;16.37;;;3.70;;
51810;SDS011;52468;40.116;18.296;2024-01-16T01:17:51;17.00;;;3.63;;
51810;SDS011;52468;40.116;18.296;2024-01-16T01:20:19;12.77;;;4.20;;
51810;SDS011;52468;40.116;18.296;2024-01-16T01:22:47;13.33;;;5.03;;
51810;SDS011;52468;40.116;18.296;2024-01-16T01:25:15;18.00;;;3.70;;
51810;SDS011;52468;40.116;18.296;2024-01-16T01:27:43;10.27;;;3.93;;
51810;SDS011;52468;40.116;18.296;2024-01-16T01:30:11;19.30;;;4.37;;
51810;SDS011;52468;40.116;18.296;2024-01-16T01:32:39;14.03;;;3.20;;
51810;SDS011;52468;40.116;18.296;2024-01-16T01:35:07;15.33;;;3.77;;
51810;SDS011;52468;40.116;18.296;2024-01-16T01:37:35;14.53;;;4.07;;
51810;SDS011;52468;40.116;18.296;2024-01-16T01:40:03;13.67;;;4.03;;
51810;SDS011;52468;40.116;18.296;2024-01-16T01:42:32;15.33;;;4.20;;
51810;SDS011;52468;40.116;18.296;2024-01-16T01:45:00;10.10;;;4.07;;
51810;SDS011;52468;40.116;18.296;2024-01-16T01:47:27;8.70;;;3.40;;
51810;SDS011;52468;40.116;18.296;2024-01-16T01:49:57;10.00;;;2.93;;
51810;SDS011;52468;40.116;18.296;2024-01-16T01:52:25;9.63;;;4.43;;
51810;SDS011;52468;40.116;18.296;2024-01-16T01:54:53;13.63;;;4.20;;
51810;SDS011;52468;40.116;18.296;2024-01-16T01:57:21;13.93;;;4.17;;
51810;SDS011;52468;40.116;18.296;2024-01-16T01:59:49;12.17;;;5.00;;
51810;SDS011;52468;40.116;18.296;2024-01-16T02:02:18;17.50;;;3.93;;
51810;SDS011;52468;40.116;18.296;2024-01-16T02:04:48;17.07;;;3.70;;
51810;SDS011;52468;40.116;18.296;2024-01-16T02:07:16;22.47;;;4.57;;
51810;SDS011;52468;40.116;18.296;2024-01-16T02:09:45;12.30;;;2.90;;
51810;SDS011;52468;40.116;18.296;2024-01-16T02:12:13;12.67;;;3.27;;
51810;SDS011;52468;40.116;18.296;2024-01-16T02:14:41;14.93;;;3.63;;
51810;SDS011;52468;40.116;18.296;2024-01-16T02:17:09;12.73;;;3.90;;
51810;SDS011;52468;40.116;18.296;2024-01-16T02:19:37;10.33;;;3.43;;
51810;SDS011;52468;40.116;18.296;2024-01-16T02:22:05;17.87;;;4.83;;
51810;SDS011;52468;40.116;18.296;2024-01-16T02:24:39;12.20;;;4.27;;
51810;SDS011;52468;40.116;18.296;2024-01-16T02:27:07;20.00;;;4.00;;
51810;SDS011;52468;40.116;18.296;2024-01-16T02:29:39;15.77;;;4.10;;
51810;SDS011;52468;40.116;18.296;2024-01-16T02:32:11;16.03;;;4.30;;
51810;SDS011;52468;40.116;18.296;2024-01-16T02:34:40;10.63;;;3.97;;
51810;SDS011;52468;40.116;18.296;2024-01-16T02:37:08;22.43;;;4.07;;
51810;SDS011;52468;40.116;18.296;2024-01-16T02:39:36;18.00;;;5.10;;
51810;SDS011;52468;40.116;18.296;2024-01-16T02:42:04;14.67;;;3.83;;
51810;SDS011;52468;40.116;18.296;2024-01-16T02:44:32;14.30;;;4.00;;
51810;SDS011;52468;40.116;18.296;2024-01-16T02:47:00;14.77;;;3.87;;
51810;SDS011;52468;40.116;18.296;2024-01-16T02:49:28;14.83;;;4.53;;
51810;SDS011;52468;40.116;18.296;2024-01-16T02:51:58;16.50;;;3.73;;
51810;SDS011;52468;40.116;18.296;2024-01-16T02:54:26;8.33;;;3.57;;
51810;SDS011;52468;40.116;18.296;2024-01-16T02:56:54;15.10;;;3.83;;
51810;SDS011;52468;40.116;18.296;2024-01-16T02:59:22;15.33;;;4.63;;
51810;SDS011;52468;40.116;18.296;2024-01-16T03:01:50;17.20;;;5.13;;
51810;SDS011;52468;40.116;18.296;2024-01-16T03:04:18;12.60;;;5.23;;
51810;SDS011;52468;40.116;18.296;2024-01-16T03:06:45;15.50;;;3.93;;
51810;SDS011;52468;40.116;18.296;2024-01-16T03:09:13;14.30;;;4.60;;
51810;SDS011;52468;40.116;18.296;2024-01-16T03:11:41;20.37;;;4.30;;
51810;SDS011;52468;40.116;18.296;2024-01-16T03:14:09;7.80;;;3.63;;
51810;SDS011;52468;40.116;18.296;2024-01-16T03:16:37;8.10;;;3.57;;
51810;SDS011;52468;40.116;18.296;2024-01-16T03:19:05;25.00;;;4.97;;
51810;SDS011;52468;40.116;18.296;2024-01-16T03:21:33;8.43;;;3.43;;
51810;SDS011;52468;40.116;18.296;2024-01-16T03:24:01;12.53;;;4.07;;
51810;SDS011;52468;40.116;18.296;2024-01-16T03:26:29;17.67;;;4.50;;
51810;SDS011;52468;40.116;18.296;2024-01-16T03:28:57;16.43;;;4.47;;
51810;SDS011;52468;40.116;18.296;2024-01-16T03:31:24;11.57;;;3.70;;
51810;SDS011;52468;40.116;18.296;2024-01-16T03:33:52;14.47;;;4.60;;
51810;SDS011;52468;40.116;18.296;2024-01-16T03:36:20;12.27;;;4.47;;
51810;SDS011;52468;40.116;18.296;2024-01-16T03:38:48;15.80;;;5.00;;
51810;SDS011;52468;40.116;18.296;2024-01-16T03:41:17;7.77;;;3.30;;
51810;SDS011;52468;40.116;18.296;2024-01-16T03:43:44;11.77;;;3.93;;
51810;SDS011;52468;40.116;18.296;2024-01-16T03:46:12;11.83;;;3.33;;
51810;SDS011;52468;40.116;18.296;2024-01-16T03:48:40;19.87;;;3.97;;
51810;SDS011;52468;40.116;18.296;2024-01-16T03:51:08;20.33;;;5.23;;
51810;SDS011;52468;40.116;18.296;2024-01-16T03:53:36;11.90;;;3.77;;
51810;SDS011;52468;40.116;18.296;2024-01-16T03:56:04;13.80;;;4.20;;
51810;SDS011;52468;40.116;18.296;2024-01-16T03:58:32;12.87;;;4.77;;
51810;SDS011;52468;40.116;18.296;2024-01-16T04:01:00;10.63;;;4.87;;
51810;SDS011;52468;40.116;18.296;2024-01-16T04:03:28;8.70;;;2.97;;
51810;SDS011;52468;40.116;18.296;2024-01-16T04:05:56;20.50;;;4.90;;
51810;SDS011;52468;40.116;18.296;2024-01-16T04:08:24;13.70;;;3.93;;
51810;SDS011;52468;40.116;18.296;2024-01-16T04:10:52;11.63;;;3.97;;
51810;SDS011;52468;40.116;18.296;2024-01-16T04:13:20;6.87;;;3.00;;
51810;SDS011;52468;40.116;18.296;2024-01-16T04:15:48;9.63;;;3.07;;
51810;SDS011;52468;40.116;18.296;2024-01-16T04:18:16;9.63;;;2.77;;
51810;SDS011;52468;40.116;18.296;2024-01-16T04:20:44;15.10;;;3.80;;
51810;SDS011;52468;40.116;18.296;2024-01-16T04:23:12;14.30;;;3.50;;
51810;SDS011;52468;40.116;18.296;2024-01-16T04:25:40;20.60;;;4.80;;
51810;SDS011;52468;40.116;18.296;2024-01-16T04:28:08;9.87;;;4.00;;
51810;SDS011;52468;40.116;18.296;2024-01-16T04:30:36;10.20;;;4.27;;
51810;SDS011;52468;40.116;18.296;2024-01-16T04:33:04;11.67;;;3.73;;
51810;SDS011;52468;40.116;18.296;2024-01-16T04:35:32;13.10;;;3.27;;
51810;SDS011;52468;40.116;18.296;2024-01-16T04:38:00;6.50;;;3.33;;
51810;SDS011;52468;40.116;18.296;2024-01-16T04:40:27;16.13;;;4.40;;
51810;SDS011;52468;40.116;18.296;2024-01-16T04:42:55;15.03;;;5.13;;
51810;SDS011;52468;40.116;18.296;2024-01-16T04:45:23;14.40;;;3.97;;
51810;SDS011;52468;40.116;18.296;2024-01-16T04:47:51;12.20;;;3.70;;
51810;SDS011;52468;40.116;18.296;2024-01-16T04:50:19;12.20;;;2.93;;
51810;SDS011;52468;40.116;18.296;2024-01-16T04:52:47;14.13;;;4.47;;
51810;SDS011;52468;40.116;18.296;2024-01-16T04:55:16;14.47;;;6.17;;
51810;SDS011;52468;40.116;18.296;2024-01-16T04:57:44;7.67;;;4.27;;
51810;SDS011;52468;40.116;18.296;2024-01-16T05:00:12;11.40;;;3.33;;
51810;SDS011;52468;40.116;18.296;2024-01-16T05:02:40;16.13;;;4.53;;
51810;SDS011;52468;40.116;18.296;2024-01-16T05:05:08;8.93;;;3.40;;
51810;SDS011;52468;40.116;18.296;2024-01-16T05:07:36;15.77;;;3.47;;
51810;SDS011;52468;40.116;18.296;2024-01-16T05:10:04;11.23;;;3.40;;
51810;SDS011;52468;40.116;18.296;2024-01-16T05:12:33;15.67;;;3.77;;
51810;SDS011;52468;40.116;18.296;2024-01-16T05:15:01;15.23;;;4.17;;
51810;SDS011;52468;40.116;18.296;2024-01-16T05:17:30;12.37;;;3.97;;
51810;SDS011;52468;40.116;18.296;2024-01-16T05:19:58;23.63;;;5.10;;
51810;SDS011;52468;40.116;18.296;2024-01-16T05:22:26;9.80;;;3.77;;
51810;SDS011;52468;40.116;18.296;2024-01-16T05:24:54;16.17;;;4.53;;
51810;SDS011;52468;40.116;18.296;2024-01-16T05:27:22;13.60;;;4.13;;
51810;SDS011;52468;40.116;18.296;2024-01-16T05:29:50;11.77;;;4.63;;
51810;SDS011;52468;40.116;18.296;2024-01-16T05:32:18;9.07;;;4.07;;
51810;SDS011;52468;40.116;18.296;2024-01-16T05:34:45;13.17;;;3.67;;
51810;SDS011;52468;40.116;18.296;2024-01-16T05:37:13;12.97;;;4.37;;
51810;SDS011;52468;40.116;18.296;2024-01-16T05:39:41;14.73;;;4.47;;
51810;SDS011;52468;40.116;18.296;2024-01-16T05:42:09;21.33;;;5.43;;
51810;SDS011;52468;40.116;18.296;2024-01-16T05:44:38;11.17;;;4.80;;
51810;SDS011;52468;40.116;18.296;2024-01-16T05:47:06;10.70;;;3.40;;
51810;SDS011;52468;40.116;18.296;2024-01-16T05:49:34;8.37;;;3.67;;
51810;SDS011;52468;40.116;18.296;2024-01-16T05:52:03;15.00;;;4.43;;
51810;SDS011;52468;40.116;18.296;2024-01-16T05:54:31;9.27;;;3.67;;
51810;SDS011;52468;40.116;18.296;2024-01-16T05:56:59;14.37;;;3.70;;
51810;SDS011;52468;40.116;18.296;2024-01-16T05:59:27;12.47;;;4.47;;
51810;SDS011;52468;40.116;18.296;2024-01-16T06:01:54;18.73;;;4.50;;
51810;SDS011;52468;40.116;18.296;2024-01-16T06:04:22;14.40;;;4.33;;
51810;SDS011;52468;40.116;18.296;2024-01-16T06:06:50;9.57;;;4.50;;
51810;SDS011;52468;40.116;18.296;2024-01-16T06:09:18;20.00;;;4.67;;
51810;SDS011;52468;40.116;18.296;2024-01-16T06:11:46;15.73;;;3.97;;
51810;SDS011;52468;40.116;18.296;2024-01-16T06:14:15;14.20;;;3.80;;
51810;SDS011;52468;40.116;18.296;2024-01-16T06:16:48;9.45;;;4.00;;
51810;SDS011;52468;40.116;18.296;2024-01-16T06:19:18;9.13;;;3.33;;
51810;SDS011;52468;40.116;18.296;2024-01-16T06:21:45;12.57;;;3.93;;
51810;SDS011;52468;40.116;18.296;2024-01-16T06:24:13;13.23;;;3.90;;
51810;SDS011;52468;40.116;18.296;2024-01-16T06:26:42;20.20;;;3.70;;
51810;SDS011;52468;40.116;18.296;2024-01-16T06:29:09;16.30;;;3.90;;
51810;SDS011;52468;40.116;18.296;2024-01-16T06:31:40;10.30;;;3.57;;
51810;SDS011;52468;40.116;18.296;2024-01-16T06:34:08;8.57;;;3.20;;
51810;SDS011;52468;40.116;18.296;2024-01-16T06:36:35;15.70;;;3.63;;
51810;SDS011;52468;40.116;18.296;2024-01-16T06:39:03;12.20;;;3.83;;
51810;SDS011;52468;40.116;18.296;2024-01-16T06:41:31;15.73;;;4.20;;
51810;SDS011;52468;40.116;18.296;2024-01-16T06:43:59;14.47;;;3.93;;
51810;SDS011;52468;40.116;18.296;2024-01-16T06:46:27;15.83;;;5.97;;
51810;SDS011;52468;40.116;18.296;2024-01-16T06:48:55;20.43;;;4.83;;
51810;SDS011;52468;40.116;18.296;2024-01-16T06:51:23;15.70;;;4.47;;
51810;SDS011;52468;40.116;18.296;2024-01-16T06:53:51;22.63;;;5.63;;
51810;SDS011;52468;40.116;18.296;2024-01-16T06:56:19;19.33;;;4.40;;
51810;SDS011;52468;40.116;18.296;2024-01-16T06:58:47;15.10;;;5.43;;
51810;SDS011;52468;40.116;18.296;2024-01-16T07:01:15;9.60;;;4.40;;
51810;SDS011;52468;40.116;18.296;2024-01-16T07:03:43;15.07;;;5.37;;
51810;SDS011;52468;40.116;18.296;2024-01-16T07:06:11;19.10;;;5.33;;
51810;SDS011;52468;40.116;18.296;2024-01-16T07:08:39;20.83;;;5.37;;
51810;SDS011;52468;40.116;18.296;2024-01-16T07:11:08;20.33;;;5.73;;
51810;SDS011;52468;40.116;18.296;2024-01-16T07:13:40;12.83;;;5.10;;
51810;SDS011;52468;40.116;18.296;2024-01-16T07:16:11;24.43;;;5.93;;
51810;SDS011;52468;40.116;18.296;2024-01-16T07:18:39;13.30;;;5.00;;
51810;SDS011;52468;40.116;18.296;2024-01-16T07:21:17;19.90;;;7.83;;
51810;SDS011;52468;40.116;18.296;2024-01-16T07:23:46;17.73;;;6.77;;
51810;SDS011;52468;40.116;18.296;2024-01-16T07:26:14;16.60;;;6.40;;
51810;SDS011;52468;40.116;18.296;2024-01-16T07:28:43;9.50;;;5.03;;
51810;SDS011;52468;40.116;18.296;2024-01-16T07:31:13;13.83;;;6.50;;
51810;SDS011;52468;40.116;18.296;2024-01-16T07:33:42;26.50;;;7.27;;
51810;SDS011;52468;40.116;18.296;2024-01-16T07:36:11;15.43;;;7.20;;
51810;SDS011;52468;40.116;18.296;2024-01-16T07:38:39;28.43;;;7.50;;
51810;SDS011;52468;40.116;18.296;2024-01-16T07:41:07;13.13;;;6.93;;
51810;SDS011;52468;40.116;18.296;2024-01-16T07:43:35;15.33;;;6.37;;
51810;SDS011;52468;40.116;18.296;2024-01-16T07:46:05;26.33;;;8.47;;
51810;SDS011;52468;40.116;18.296;2024-01-16T07:48:33;19.80;;;7.07;;
51810;SDS011;52468;40.116;18.296;2024-01-16T07:51:01;18.20;;;7.70;;
51810;SDS011;52468;40.116;18.296;2024-01-16T07:53:29;20.37;;;8.00;;
51810;SDS011;52468;40.116;18.296;2024-01-16T07:55:57;23.50;;;8.30;;
51810;SDS011;52468;40.116;18.296;2024-01-16T07:58:25;24.00;;;8.37;;
51810;SDS011;52468;40.116;18.296;2024-01-16T08:00:53;20.63;;;8.00;;
51810;SDS011;52468;40.116;18.296;2024-01-16T08:03:21;18.70;;;6.57;;
51810;SDS011;52468;40.116;18.296;2024-01-16T08:05:48;12.37;;;8.23;;
51810;SDS011;52468;40.116;18.296;2024-01-16T08:08:16;20.17;;;7.57;;
51810;SDS011;52468;40.116;18.296;2024-01-16T08:10:44;13.53;;;6.43;;
51810;SDS011;52468;40.116;18.296;2024-01-16T08:13:12;17.13;;;6.77;;
51810;SDS011;52468;40.116;18.296;2024-01-16T08:15:40;19.50;;;7.17;;
51810;SDS011;52468;40.116;18.296;2024-01-16T08:18:08;10.17;;;6.13;;
51810;SDS011;52468;40.116;18.296;2024-01-16T08:20:36;21.17;;;6.23;;
51810;SDS011;52468;40.116;18.296;2024-01-16T08:23:04;14.93;;;5.30;;
51810;SDS011;52468;40.116;18.296;2024-01-16T08:25:31;24.97;;;6.00;;
51810;SDS011;52468;40.116;18.296;2024-01-16T08:27:59;10.47;;;5.20;;
51810;SDS011;52468;40.116;18.296;2024-01-16T08:30:28;9.77;;;4.47;;
51810;SDS011;52468;40.116;18.296;2024-01-16T08:32:55;11.03;;;4.63;;
51810;SDS011;52468;40.116;18.296;2024-01-16T08:35:23;11.47;;;3.80;;
51810;SDS011;52468;40.116;18.296;2024-01-16T08:37:51;14.03;;;3.80;;
51810;SDS011;52468;40.116;18.296;2024-01-16T08:40:19;11.50;;;4.03;;
51810;SDS011;52468;40.116;18.296;2024-01-16T08:42:47;8.83;;;4.50;;
51810;SDS011;52468;40.116;18.296;2024-01-16T08:45:20;15.55;;;4.80;;
51810;SDS011;52468;40.116;18.296;2024-01-16T08:47:49;8.77;;;3.77;;
51810;SDS011;52468;40.116;18.296;2024-01-16T08:50:17;12.80;;;3.57;;
51810;SDS011;52468;40.116;18.296;2024-01-16T08:52:45;4.53;;;2.13;;
51810;SDS011;52468;40.116;18.296;2024-01-16T08:55:12;8.67;;;2.03;;
51810;SDS011;52468;40.116;18.296;2024-01-16T08:57:40;4.13;;;2.17;;
51810;SDS011;52468;40.116;18.296;2024-01-16T09:00:09;7.70;;;1.97;;
51810;SDS011;52468;40.116;18.296;2024-01-16T09:02:37;6.67;;;1.83;;
51810;SDS011;52468;40.116;18.296;2024-01-16T09:05:05;6.50;;;2.47;;
51810;SDS011;52468;40.116;18.296;2024-01-16T09:07:33;3.93;;;2.13;;
51810;SDS011;52468;40.116;18.296;2024-01-16T09:10:00;4.30;;;2.07;;
51810;SDS011;52468;40.116;18.296;2024-01-16T09:12:28;3.43;;;2.10;;
51810;SDS011;52468;40.116;18.296;2024-01-16T09:14:56;9.40;;;1.80;;
51810;SDS011;52468;40.116;18.296;2024-01-16T09:17:24;7.37;;;1.90;;
51810;SDS011;52468;40.116;18.296;2024-01-16T09:19:55;7.03;;;1.93;;
51810;SDS011;52468;40.116;18.296;2024-01-16T09:22:23;9.13;;;2.13;;
51810;SDS011;52468;40.116;18.296;2024-01-16T09:24:51;3.20;;;1.70;;
51810;SDS011;52468;40.116;18.296;2024-01-16T09:27:19;5.73;;;2.03;;
51810;SDS011;52468;40.116;18.296;2024-01-16T09:29:47;5.43;;;2.73;;
51810;SDS011;52468;40.116;18.296;2024-01-16T09:32:14;4.37;;;2.53;;
51810;SDS011;52468;40.116;18.296;2024-01-16T09:34:42;6.10;;;1.97;;
51810;SDS011;52468;40.116;18.296;2024-01-16T09:37:10;2.77;;;1.93;;
51810;SDS011;52468;40.116;18.296;2024-01-16T09:39:41;8.70;;;2.27;;
51810;SDS011;52468;40.116;18.296;2024-01-16T09:42:09;4.90;;;2.33;;
51810;SDS011;52468;40.116;18.296;2024-01-16T09:44:38;4.03;;;1.40;;
51810;SDS011;52468;40.116;18.296;2024-01-16T09:47:06;2.83;;;1.43;;
51810;SDS011;52468;40.116;18.296;2024-01-16T09:49:35;5.00;;;1.40;;
51810;SDS011;52468;40.116;18.296;2024-01-16T09:52:03;5.63;;;1.30;;
51810;SDS011;52468;40.116;18.296;2024-01-16T09:54:32;2.03;;;1.13;;
51810;SDS011;52468;40.116;18.296;2024-01-16T09:57:00;4.63;;;2.17;;
51810;SDS011;52468;40.116;18.296;2024-01-16T09:59:32;4.32;;;1.65;;
51810;SDS011;52468;40.116;18.296;2024-01-16T10:02:03;3.73;;;1.30;;
51810;SDS011;52468;40.116;18.296;2024-01-16T10:04:34;4.70;;;1.37;;
51810;SDS011;52468;40.116;18.296;2024-01-16T10:07:01;2.60;;;1.20;;
51810;SDS011;52468;40.116;18.296;2024-01-16T10:09:31;10.43;;;1.73;;
51810;SDS011;52468;40.116;18.296;2024-01-16T10:11:59;5.00;;;1.47;;
51810;SDS011;52468;40.116;18.296;2024-01-16T10:14:27;1.63;;;1.03;;
51810;SDS011;52468;40.116;18.296;2024-01-16T10:16:57;2.63;;;1.60;;
51810;SDS011;52468;40.116;18.296;2024-01-16T10:22:23;6.17;;;1.60;;
51810;SDS011;52468;40.116;18.296;2024-01-16T10:25:04;5.03;;;1.57;;
51810;SDS011;52468;40.116;18.296;2024-01-16T10:27:37;6.67;;;1.73;;
51810;SDS011;52468;40.116;18.296;2024-01-16T10:30:07;3.90;;;1.07;;
51810;SDS011;52468;40.116;18.296;2024-01-16T10:32:41;2.40;;;1.10;;
51810;SDS011;52468;40.116;18.296;2024-01-16T10:35:11;8.87;;;2.63;;
51810;SDS011;52468;40.116;18.296;2024-01-16T10:37:49;6.60;;;2.07;;
51810;SDS011;52468;40.116;18.296;2024-01-16T10:45:45;3.13;;;1.57;;
51810;SDS011;52468;40.116;18.296;2024-01-16T10:48:13;5.13;;;1.67;;
51810;SDS011;52468;40.116;18.296;2024-01-16T10:50:43;5.70;;;2.43;;
51810;SDS011;52468;40.116;18.296;2024-01-16T10:53:12;5.90;;;1.63;;
51810;SDS011;52468;40.116;18.296;2024-01-16T10:55:52;4.17;;;1.53;;
51810;SDS011;52468;40.116;18.296;2024-01-16T10:58:22;5.17;;;1.60;;
51810;SDS011;52468;40.116;18.296;2024-01-16T11:00:53;5.87;;;2.40;;
51810;SDS011;52468;40.116;18.296;2024-01-16T11:06:09;5.83;;;3.20;;
51810;SDS011;52468;40.116;18.296;2024-01-16T11:08:39;3.37;;;2.00;;
51810;SDS011;52468;40.116;18.296;2024-01-16T11:11:07;10.30;;;3.50;;
51810;SDS011;52468;40.116;18.296;2024-01-16T11:13:36;7.40;;;2.70;;
51810;SDS011;52468;40.116;18.296;2024-01-16T11:16:05;5.73;;;2.30;;
51810;SDS011;52468;40.116;18.296;2024-01-16T11:18:35;4.50;;;2.63;;
51810;SDS011;52468;40.116;18.296;2024-01-16T11:21:14;5.47;;;2.40;;
51810;SDS011;52468;40.116;18.296;2024-01-16T11:23:43;4.47;;;2.53;;
51810;SDS011;52468;40.116;18.296;2024-01-16T11:26:31;9.23;;;2.63;;
51810;SDS011;52468;40.116;18.296;2024-01-16T11:31:55;9.18;;;3.88;;
51810;SDS011;52468;40.116;18.296;2024-01-16T11:35:16;4.43;;;2.53;;
51810;SDS011;52468;40.116;18.296;2024-01-16T11:37:29;4.63;;;2.03;;
51810;SDS011;52468;40.116;18.296;2024-01-16T11:42:48;6.80;;;2.17;;
51810;SDS011;52468;40.116;18.296;2024-01-16T11:48:13;4.77;;;2.97;;
51810;SDS011;52468;40.116;18.296;2024-01-16T11:50:42;7.87;;;3.93;;
51810;SDS011;52468;40.116;18.296;2024-01-16T11:53:11;9.17;;;3.23;;
51810;SDS011;52468;40.116;18.296;2024-01-16T12:02:00;5.07;;;3.07;;
51810;SDS011;52468;40.116;18.296;2024-01-16T12:04:31;6.53;;;4.23;;
51810;SDS011;52468;40.116;18.296;2024-01-16T12:06:59;16.90;;;9.27;;
51810;SDS011;52468;40.116;18.296;2024-01-16T12:09:28;6.07;;;3.00;;
51810;SDS011;52468;40.116;18.296;2024-01-16T12:12:00;6.17;;;2.67;;
51810;SDS011;52468;40.116;18.296;2024-01-16T12:17:12;3.70;;;2.07;;
51810;SDS011;52468;40.116;18.296;2024-01-16T12:19:41;5.27;;;1.70;;
51810;SDS011;52468;40.116;18.296;2024-01-16T12:22:13;4.17;;;1.87;;
51810;SDS011;52468;40.116;18.296;2024-01-16T12:24:41;7.07;;;3.40;;
51810;SDS011;52468;40.116;18.296;2024-01-16T12:27:09;4.57;;;2.27;;
51810;SDS011;52468;40.116;18.296;2024-01-16T12:29:37;6.47;;;2.00;;
51810;SDS011;52468;40.116;18.296;2024-01-16T12:32:08;6.17;;;2.10;;
51810;SDS011;52468;40.116;18.296;2024-01-16T12:34:46;6.83;;;2.47;;
51810;SDS011;52468;40.116;18.296;2024-01-16T12:37:18;7.00;;;1.80;;
51810;SDS011;52468;40.116;18.296;2024-01-16T12:39:47;5.27;;;2.70;;
51810;SDS011;52468;40.116;18.296;2024-01-16T12:42:14;4.47;;;2.17;;
51810;SDS011;52468;40.116;18.296;2024-01-16T12:44:45;3.27;;;2.27;;
51810;SDS011;52468;40.116;18.296;2024-01-16T12:47:17;5.33;;;1.93;;
51810;SDS011;52468;40.116;18.296;2024-01-16T12:49:46;10.20;;;3.10;;
51810;SDS011;52468;40.116;18.296;2024-01-16T12:52:18;6.20;;;2.47;;
51810;SDS011;52468;40.116;18.296;2024-01-16T12:55:00;4.40;;;2.13;;
51810;SDS011;52468;40.116;18.296;2024-01-16T12:57:30;4.07;;;1.93;;
51810;SDS011;52468;40.116;18.296;2024-01-16T12:59:58;9.37;;;3.70;;
51810;SDS011;52468;40.116;18.296;2024-01-16T13:02:28;4.73;;;2.50;;
51810;SDS011;52468;40.116;18.296;2024-01-16T13:04:58;5.53;;;2.60;;
51810;SDS011;52468;40.116;18.296;2024-01-16T13:07:27;10.50;;;2.10;;
51810;SDS011;52468;40.116;18.296;2024-01-16T13:10:07;5.80;;;2.10;;
51810;SDS011;52468;40.116;18.296;2024-01-16T13:12:36;7.77;;;1.90;;
51810;SDS011;52468;40.116;18.296;2024-01-16T13:15:05;7.20;;;2.23;;
51810;SDS011;52468;40.116;18.296;2024-01-16T13:17:33;6.83;;;3.07;;
51810;SDS011;52468;40.116;18.296;2024-01-16T13:20:02;3.40;;;1.43;;
51810;SDS011;52468;40.116;18.296;2024-01-16T13:22:34;5.90;;;1.73;;
51810;SDS011;52468;40.116;18.296;2024-01-16T13:25:03;3.20;;;1.87;;
51810;SDS011;52468;40.116;18.296;2024-01-16T13:27:34;4.33;;;1.77;;
51810;SDS011;52468;40.116;18.296;2024-01-16T13:30:02;4.77;;;1.90;;
51810;SDS011;52468;40.116;18.296;2024-01-16T13:32:30;5.73;;;2.07;;
51810;SDS011;52468;40.116;18.296;2024-01-16T13:34:58;3.20;;;1.43;;
51810;SDS011;52468;40.116;18.296;2024-01-16T13:37:26;3.50;;;1.83;;
51810;SDS011;52468;40.116;18.296;2024-01-16T13:39:54;3.70;;;1.60;;
51810;SDS011;52468;40.116;18.296;2024-01-16T13:42:21;4.77;;;1.53;;
51810;SDS011;52468;40.116;18.296;2024-01-16T13:44:49;4.60;;;2.17;;
51810;SDS011;52468;40.116;18.296;2024-01-16T13:47:18;2.97;;;1.83;;
51810;SDS011;52468;40.116;18.296;2024-01-16T13:49:48;3.73;;;2.57;;
51810;SDS011;52468;40.116;18.296;2024-01-16T13:52:16;12.80;;;2.50;;
51810;SDS011;52468;40.116;18.296;2024-01-16T13:54:44;8.23;;;2.43;;
51810;SDS011;52468;40.116;18.296;2024-01-16T13:57:12;10.23;;;2.50;;
51810;SDS011;52468;40.116;18.296;2024-01-16T13:59:40;8.60;;;3.20;;
51810;SDS011;52468;40.116;18.296;2024-01-16T14:02:08;8.67;;;3.00;;
51810;SDS011;52468;40.116;18.296;2024-01-16T14:04:36;10.07;;;3.13;;
51810;SDS011;52468;40.116;18.296;2024-01-16T14:07:04;5.97;;;2.23;;
51810;SDS011;52468;40.116;18.296;2024-01-16T14:09:35;5.23;;;2.27;;
51810;SDS011;52468;40.116;18.296;2024-01-16T14:12:03;8.53;;;3.00;;
51810;SDS011;52468;40.116;18.296;2024-01-16T14:14:33;13.10;;;3.90;;
51810;SDS011;52468;40.116;18.296;2024-01-16T14:17:02;16.30;;;6.40;;
51810;SDS011;52468;40.116;18.296;2024-01-16T14:19:30;7.57;;;3.73;;
51810;SDS011;52468;40.116;18.296;2024-01-16T14:21:57;11.03;;;4.37;;
51810;SDS011;52468;40.116;18.296;2024-01-16T14:24:25;22.23;;;8.77;;
51810;SDS011;52468;40.116;18.296;2024-01-16T14:26:53;15.80;;;6.57;;
51810;SDS011;52468;40.116;18.296;2024-01-16T14:29:23;5.47;;;2.60;;
51810;SDS011;52468;40.116;18.296;2024-01-16T14:31:52;8.67;;;2.67;;
51810;SDS011;52468;40.116;18.296;2024-01-16T14:34:23;9.00;;;2.53;;
51810;SDS011;52468;40.116;18.296;2024-01-16T14:36:51;7.23;;;2.37;;
51810;SDS011;52468;40.116;18.296;2024-01-16T14:39:21;10.00;;;2.70;;
51810;SDS011;52468;40.116;18.296;2024-01-16T14:41:52;7.33;;;3.30;;
51810;SDS011;52468;40.116;18.296;2024-01-16T14:44:20;12.67;;;6.17;;
51810;SDS011;52468;40.116;18.296;2024-01-16T14:46:48;10.83;;;2.60;;
51810;SDS011;52468;40.116;18.296;2024-01-16T14:49:16;5.47;;;2.87;;
51810;SDS011;52468;40.116;18.296;2024-01-16T14:51:45;13.57;;;3.00;;
51810;SDS011;52468;40.116;18.296;2024-01-16T14:54:13;11.07;;;3.70;;
51810;SDS011;52468;40.116;18.296;2024-01-16T14:56:41;8.90;;;3.77;;
51810;SDS011;52468;40.116;18.296;2024-01-16T14:59:09;9.93;;;4.00;;
51810;SDS011;52468;40.116;18.296;2024-01-16T15:01:38;5.97;;;3.67;;
51810;SDS011;52468;40.116;18.296;2024-01-16T15:04:06;8.17;;;4.37;;
51810;SDS011;52468;40.116;18.296;2024-01-16T15:06:34;12.63;;;3.77;;